KOLF/OLF METAR and TAF weather

Enter ICAO airport designator
Station Type Date Time Source
KOLF METAR 2019/07/20 04:53 UTC NOAA

KOLF 200453Z AUTO 00000KT 10SM CLR 14/07 A2988 RMK AO2 SLP113 T01440072


Station Type Date Time Source
KOLF Decoded METAR 2019/07/20 04:53 UTC NOAA

WOLF POINT CLAYTON AIRPORT, MT, United States (KOLF) 48-06N 105-35W 604M
Jul 20, 2019 - 12:53 AM EDT / 2019.07.20 0453 UTC
Wind: Calm:0
Visibility: 10 mile(s):0
Sky conditions: clear
Temperature: 57.9 F (14.4 C)
Dew Point: 45.0 F (7.2 C)
Relative Humidity: 61%
Pressure (altimeter): 29.88 in. Hg (1011 hPa)
ob: KOLF 200453Z AUTO 00000KT 10SM CLR 14/07 A2988 RMK AO2 SLP113 T01440072
cycle: 5

Station Type Date Time Source
KOLF TAF 2019/07/19 18:30 UTC NOAA

TAF KOLF 191729Z 1918/2018 27014G23KT P6SM SCT120
FM200300 27007KT P6SM FEW120

Example: see airport list